KGRR

Gerald R Ford International Airport

Grand Rapids, Michigan, USA
METAR KGRR 180153Z 00000KT 10SM FEW070 BKN140 23/21 A2999 RMK AO2 SLP150 T02330211
Observed Flight Rules
Aug-18 @ 01:53 UTC (36 minutes ago) Visual Flight Rules
Visibility Clouds
10 miles
  • Few at 7,000' AGL
  • Broken at 14,000' AGL
Temperatures Readings
Current 23°C / 73°F
Dewpoint 21°C / 70°F
Humidity 89%
Altimeter 29.99" Hg
Pressure 1015 hPa
Elevation 237
METAR KGRR 180153Z 00000KT 10SM FEW070 BKN140 23/21 A2999 RMK AO2 SLP150 T02330211
Observed Flight Rules
Aug-18 @ 01:53 UTC
(36 minutes ago)
VFR
Clouds
  • Few at 7,000' AGL
  • Broken at 14,000' AGL
Temperature Dewpoint
23°C / 73°F 21°C / 70°F
Humidity Altimeter Pressure
89% 29.99" Hg 1015 hPa